| time (UTC) | temp C | wind direction | speed KPH | gust KPH | rain 1hr cm | rain 24hr cm | rain mn cm | humidity % | barometer mb |
| 20260509234759 | 15 | 163 | 3.2 | 6.4 | 0.00 | 0.61 | 0.61 | 84 | 1011.0 |
| 20260509234256 | 15 | 131 | 3.2 | 6.4 | 0.00 | 0.61 | 0.61 | 83 | 1010.9 |
| 20260509233754 | 15 | 132 | 3.2 | 6.4 | 0.00 | 0.61 | 0.61 | 83 | 1011.0 |
| 20260509233251 | 15 | 154 | 3.2 | 4.8 | 0.00 | 0.61 | 0.61 | 82 | 1010.9 |
| 20260509232747 | 15 | 179 | 3.2 | 6.4 | 0.00 | 0.61 | 0.61 | 81 | 1011.0 |
| 20260509232245 | 16 | 153 | 4.8 | 9.7 | 0.00 | 0.61 | 0.61 | 81 | 1010.7 |
| 20260509231741 | 16 | 180 | 4.8 | 8.0 | 0.00 | 0.61 | 0.61 | 79 | 1010.7 |
| 20260509231238 | 16 | 167 | 3.2 | 6.4 | 0.00 | 0.61 | 0.61 | 80 | 1010.7 |
| 20260509230735 | 16 | 151 | 4.8 | 8.0 | 0.00 | 0.61 | 0.61 | 80 | 1011.0 |
| 20260509230232 | 16 | 148 | 3.2 | 9.7 | 0.00 | 0.61 | 0.61 | 80 | 1010.8 |
| 20260509225727 | 16 | 177 | 6.4 | 9.7 | 0.00 | 0.61 | 0.61 | 80 | 1010.9 |
| 20260509225224 | 16 | 142 | 4.8 | 6.4 | 0.00 | 0.61 | 0.61 | 79 | 1010.9 |
| 20260509224719 | 16 | 180 | 6.4 | 6.4 | 0.00 | 0.61 | 0.61 | 80 | 1011.0 |
| 20260509224217 | 16 | 181 | 4.8 | 9.7 | 0.00 | 0.61 | 0.61 | 81 | 1011.0 |
| 20260509223714 | 15 | 165 | 4.8 | 8.0 | 0.00 | 0.61 | 0.61 | 82 | 1011.0 |
| 20260509223210 | 16 | 152 | 9.7 | 9.7 | 0.00 | 0.61 | 0.61 | 81 | 1011.1 |
| 20260509222707 | 15 | 173 | 6.4 | 9.7 | 0.00 | 0.61 | 0.61 | 82 | 1011.2 |
| 20260509222203 | 15 | 183 | 4.8 | 9.7 | 0.00 | 0.61 | 0.61 | 82 | 1010.9 |
| 20260509221659 | 16 | 176 | 3.2 | 6.4 | 0.00 | 0.61 | 0.61 | 81 | 1011.0 |
| 20260509221155 | 16 | 167 | 4.8 | 8.0 | 0.00 | 0.61 | 0.61 | 81 | 1011.1 |
| 20260509220651 | 16 | 130 | 4.8 | 6.4 | 0.00 | 0.61 | 0.61 | 82 | 1011.1 |
| 20260509220148 | 16 | 220 | 6.4 | 8.0 | 0.00 | 0.61 | 0.61 | 79 | 1011.2 |
| 20260509215644 | 16 | 188 | 9.7 | 17.7 | 0.00 | 0.61 | 0.61 | 79 | 1011.4 |
| 20260509215140 | 16 | 189 | 9.7 | 17.7 | 0.00 | 0.61 | 0.61 | 78 | 1011.2 |
| 20260509214637 | 16 | 195 | 9.7 | 14.5 | 0.00 | 0.61 | 0.61 | 79 | 1011.5 |
| 20260509214134 | 16 | 210 | 6.4 | 11.3 | 0.00 | 0.61 | 0.61 | 80 | 1011.5 |
| 20260509213631 | 16 | 205 | 9.7 | 9.7 | 0.00 | 0.61 | 0.61 | 79 | 1011.5 |
| 20260509213127 | 15 | 203 | 9.7 | 14.5 | 0.00 | 0.61 | 0.61 | 82 | 1011.4 |
| 20260509212625 | 15 | 198 | 8.0 | 16.1 | 0.00 | 0.61 | 0.61 | 81 | 1011.7 |
| 20260509212122 | 16 | 226 | 6.4 | 9.7 | 0.00 | 0.61 | 0.61 | 81 | 1011.4 |
| 20260509211617 | 16 | 232 | 8.0 | 16.1 | 0.00 | 0.61 | 0.61 | 80 | 1011.6 |
| 20260509211114 | 16 | 221 | 9.7 | 14.5 | 0.00 | 0.61 | 0.61 | 79 | 1011.6 |
| 20260509210611 | 16 | 189 | 9.7 | 17.7 | 0.00 | 0.61 | 0.61 | 80 | 1011.5 |
| 20260509210108 | 16 | 218 | 9.7 | 12.9 | 0.00 | 0.61 | 0.61 | 82 | 1011.4 |
| 20260509205608 | 16 | 196 | 9.7 | 17.7 | 0.00 | 0.61 | 0.61 | 81 | 1011.4 |
| 20260509205103 | 15 | 226 | 11.3 | 12.9 | 0.00 | 0.61 | 0.61 | 85 | 1011.5 |
| 20260509204559 | 15 | 193 | 16.1 | 17.7 | 0.00 | 0.61 | 0.61 | 84 | 1011.5 |
| 20260509204056 | 15 | 158 | 4.8 | 9.7 | 0.00 | 0.61 | 0.61 | 87 | 1011.8 |
| 20260509203552 | 15 | 184 | 6.4 | 8.0 | 0.00 | 0.61 | 0.61 | 87 | 1011.9 |
| 20260509203051 | 14 | 181 | 3.2 | 14.5 | 0.00 | 0.61 | 0.61 | 88 | 1011.7 |
| 20260509202545 | 14 | 193 | 4.8 | 14.5 | 0.00 | 0.61 | 0.61 | 88 | 1011.8 |
| 20260509202041 | 13 | 200 | 9.7 | 14.5 | 0.00 | 0.61 | 0.61 | 89 | 1011.8 |
| 20260509201536 | 13 | 185 | 8.0 | 16.1 | 0.00 | 0.61 | 0.61 | 89 | 1011.8 |
| 20260509201034 | 13 | 186 | 3.2 | 17.7 | 0.00 | 0.61 | 0.61 | 91 | 1011.8 |
| 20260509200532 | 13 | 194 | 9.7 | 17.7 | 0.00 | 0.61 | 0.61 | 91 | 1012.0 |
| 20260509200030 | 13 | 202 | 12.9 | 14.5 | 0.00 | 0.61 | 0.61 | 90 | 1012.1 |
| 20260509195525 | 13 | 198 | 4.8 | 12.9 | 0.00 | 0.61 | 0.61 | 92 | 1012.0 |
| 20260509195025 | 13 | 175 | 6.4 | 8.0 | 0.00 | 0.61 | 0.61 | 92 | 1012.1 |
| 20260509194520 | 13 | 213 | 6.4 | 9.7 | 0.00 | 0.61 | 0.61 | 92 | 1012.2 |
| 20260509194018 | 13 | 183 | 6.4 | 14.5 | 0.00 | 0.61 | 0.61 | 92 | 1012.3 |
| 20260509193518 | 13 | 202 | 9.7 | 14.5 | 0.00 | 0.61 | 0.61 | 92 | 1012.4 |
| 20260509193015 | 13 | 193 | 9.7 | 12.9 | 0.00 | 0.61 | 0.61 | 93 | 1012.5 |
| 20260509192512 | 13 | 199 | 8.0 | 12.9 | 0.00 | 0.61 | 0.61 | 92 | 1012.8 |
| 20260509192007 | 13 | 191 | 8.0 | 12.9 | 0.00 | 0.61 | 0.61 | 92 | 1012.6 |
| 20260509191502 | 13 | 199 | 9.7 | 17.7 | 0.00 | 0.61 | 0.61 | 92 | 1012.6 |
| 20260509190957 | 13 | 183 | 4.8 | 9.7 | 0.00 | 0.61 | 0.61 | 95 | 1012.5 |
| 20260509190455 | 13 | 197 | 4.8 | 14.5 | 0.00 | 0.61 | 0.61 | 95 | 1012.5 |
| 20260509185953 | 13 | 164 | 8.0 | 9.7 | 0.00 | 0.61 | 0.61 | 96 | 1012.5 |
| 20260509185449 | 12 | 186 | 9.7 | 14.5 | 0.00 | 0.61 | 0.61 | 96 | 1012.6 |
| 20260509184946 | 12 | 201 | 6.4 | 11.3 | 0.00 | 0.61 | 0.61 | 97 | 1012.6 |
| 20260509184445 | 12 | 205 | 6.4 | 12.9 | 0.00 | 0.61 | 0.61 | 97 | 1012.6 |
| 20260509183941 | 12 | 187 | 6.4 | 9.7 | 0.00 | 0.61 | 0.61 | 98 | 1012.4 |
| 20260509183441 | 12 | 186 | 4.8 | 8.0 | 0.05 | 0.61 | 0.61 | 98 | 1012.6 |
| 20260509182937 | 12 | 197 | 6.4 | 6.4 | 0.18 | 0.61 | 0.61 | 98 | 1012.6 |
| 20260509182434 | 12 | 198 | 1.6 | 4.8 | 0.18 | 0.58 | 0.58 | 99 | 1012.5 |
| 20260509181931 | 12 | 215 | 4.8 | 6.4 | 0.05 | 0.56 | 0.56 | 98 | 1012.5 |
| 20260509181429 | 12 | 184 | 4.8 | 8.0 | 0.13 | 0.56 | 0.56 | 98 | 1012.7 |
| 20260509180926 | 12 | 179 | 6.4 | 6.4 | 0.23 | 0.56 | 0.56 | 98 | 1012.7 |
| 20260509180421 | 12 | 178 | 4.8 | 8.0 | 0.18 | 0.53 | 0.53 | 98 | 1012.7 |
| 20260509175919 | 12 | 183 | 6.4 | 12.9 | 0.13 | 0.51 | 0.51 | 98 | 1012.9 |
| 20260509175415 | 12 | 185 | 4.8 | 8.0 | 0.18 | 0.51 | 0.51 | 98 | 1012.8 |
| 20260509174911 | 12 | 180 | 4.8 | 11.3 | 0.23 | 0.51 | 0.51 | 98 | 1012.8 |
| 20260509174408 | 12 | 195 | 8.0 | 9.7 | 0.18 | 0.48 | 0.48 | 98 | 1012.9 |
| 20260509173904 | 12 | 196 | 6.4 | 9.7 | 0.13 | 0.46 | 0.46 | 98 | 1012.7 |
| 20260509173403 | 12 | 171 | 3.2 | 8.0 | 0.18 | 0.46 | 0.46 | 97 | 1012.7 |
| 20260509172900 | 12 | 186 | 6.4 | 16.1 | 0.18 | 0.43 | 0.43 | 97 | 1012.9 |
| 20260509172357 | 12 | 194 | 9.7 | 12.9 | 0.13 | 0.43 | 0.43 | 97 | 1013.0 |
| 20260509171852 | 12 | 204 | 6.4 | 9.7 | 0.13 | 0.41 | 0.41 | 98 | 1012.8 |
| 20260509171349 | 12 | 194 | 4.8 | 9.7 | 0.13 | 0.41 | 0.41 | 98 | 1012.8 |
| 20260509170845 | 12 | 172 | 4.8 | 8.0 | 0.13 | 0.38 | 0.38 | 98 | 1012.6 |
| 20260509170341 | 11 | 189 | 8.0 | 9.7 | 0.13 | 0.38 | 0.38 | 97 | 1012.7 |
| 20260509165836 | 12 | 196 | 3.2 | 8.0 | 0.05 | 0.38 | 0.38 | 98 | 1012.7 |
| 20260509165331 | 12 | 155 | 3.2 | 8.0 | 0.05 | 0.36 | 0.36 | 98 | 1012.7 |
| 20260509164827 | 12 | 162 | 3.2 | 4.8 | 0.05 | 0.36 | 0.36 | 98 | 1012.8 |
| 20260509164323 | 12 | 136 | 1.6 | 4.8 | 0.13 | 0.36 | 0.36 | 98 | 1012.8 |
| 20260509163820 | 12 | 182 | 8.0 | 9.7 | 0.05 | 0.33 | 0.33 | 98 | 1012.8 |
| 20260509163316 | 12 | 181 | 4.8 | 8.0 | 0.13 | 0.33 | 0.33 | 98 | 1012.6 |
| 20260509162815 | 12 | 129 | 0.0 | 3.2 | 0.05 | 0.33 | 0.33 | 98 | 1012.8 |
| 20260509162308 | 12 | 138 | 3.2 | 4.8 | 0.13 | 0.30 | 0.30 | 98 | 1012.8 |
| 20260509161805 | 12 | 182 | 4.8 | 8.0 | 0.13 | 0.30 | 0.30 | 98 | 1012.7 |
| 20260509161301 | 12 | 166 | 1.6 | 4.8 | 0.13 | 0.28 | 0.28 | 98 | 1012.9 |
| 20260509160756 | 12 | 174 | 1.6 | 6.4 | 0.18 | 0.28 | 0.28 | 97 | 1013.0 |
| 20260509160253 | 12 | 184 | 4.8 | 8.0 | 0.18 | 0.28 | 0.28 | 97 | 1013.1 |
| 20260509155748 | 12 | 193 | 6.4 | 8.0 | 0.13 | 0.25 | 0.25 | 96 | 1012.8 |
| 20260509155245 | 12 | 165 | 3.2 | 6.4 | 0.18 | 0.23 | 0.23 | 96 | 1013.0 |
| 20260509154741 | 12 | 184 | 8.0 | 9.7 | 0.13 | 0.23 | 0.23 | 95 | 1013.2 |
| 20260509154238 | 12 | 185 | 6.4 | 9.7 | 0.05 | 0.20 | 0.20 | 95 | 1012.8 |
| 20260509153735 | 12 | 213 | 6.4 | 9.7 | 0.05 | 0.20 | 0.20 | 96 | 1013.1 |
| 20260509153231 | 12 | 184 | 6.4 | 8.0 | 0.05 | 0.20 | 0.20 | 96 | 1012.9 |
| 20260509152728 | 12 | 171 | 3.2 | 6.4 | 0.13 | 0.20 | 0.20 | 96 | 1013.1 |
| 20260509152224 | 12 | 178 | 1.6 | 3.2 | 0.13 | 0.18 | 0.18 | 95 | 1013.3 |
| 20260509151721 | 12 | 191 | 4.8 | 9.7 | 0.05 | 0.18 | 0.18 | 94 | 1013.3 |
| 20260509151218 | 12 | 171 | 3.2 | 6.4 | 0.05 | 0.18 | 0.18 | 95 | 1013.2 |
| 20260509150716 | 12 | 180 | 3.2 | 6.4 | 0.05 | 0.18 | 0.18 | 95 | 1013.3 |
| 20260509150214 | 12 | 177 | 3.2 | 6.4 | 0.05 | 0.15 | 0.15 | 95 | 1013.3 |
| 20260509145710 | 11 | 169 | 4.8 | 8.0 | 0.05 | 0.15 | 0.15 | 95 | 1013.2 |
| 20260509145205 | 11 | 199 | 4.8 | 6.4 | 0.05 | 0.15 | 0.15 | 95 | 1013.4 |
| 20260509144702 | 11 | 134 | 3.2 | 4.8 | 0.05 | 0.15 | 0.15 | 95 | 1013.4 |
| 20260509144159 | 11 | 153 | 3.2 | 4.8 | 0.05 | 0.15 | 0.15 | 95 | 1013.5 |
| 20260509143656 | 11 | 154 | 3.2 | 4.8 | 0.05 | 0.15 | 0.15 | 95 | 1013.4 |
| 20260509143154 | 11 | 131 | 3.2 | 4.8 | 0.00 | 0.13 | 0.13 | 96 | 1013.4 |
| 20260509142649 | 11 | 128 | 3.2 | 3.2 | 0.05 | 0.13 | 0.13 | 96 | 1013.2 |
| 20260509142146 | 11 | 143 | 1.6 | 4.8 | 0.05 | 0.13 | 0.13 | 96 | 1013.4 |
| 20260509141641 | 11 | 124 | 3.2 | 3.2 | 0.05 | 0.13 | 0.13 | 96 | 1013.1 |
| 20260509141138 | 11 | 113 | 1.6 | 3.2 | 0.05 | 0.10 | 0.10 | 96 | 1013.3 |
| 20260509140635 | 11 | 145 | 1.6 | 3.2 | 0.13 | 0.10 | 0.10 | 97 | 1013.5 |
| 20260509140133 | 11 | 135 | 3.2 | 3.2 | 0.13 | 0.10 | 0.10 | 97 | 1013.4 |
| 20260509135630 | 11 | 96 | 1.6 | 3.2 | 0.05 | 0.10 | 0.10 | 96 | 1013.5 |
| 20260509135128 | 11 | 127 | 3.2 | 3.2 | 0.05 | 0.08 | 0.08 | 96 | 1013.5 |
| 20260509134624 | 11 | 126 | 3.2 | 4.8 | 0.13 | 0.08 | 0.08 | 96 | 1013.6 |
| 20260509134122 | 11 | 120 | 1.6 | 3.2 | 0.05 | 0.08 | 0.08 | 96 | 1013.3 |
| 20260509133619 | 11 | 101 | 3.2 | 3.2 | 0.00 | 0.05 | 0.05 | 96 | 1013.3 |
| 20260509133116 | 11 | 126 | 0.0 | 3.2 | 0.00 | 0.05 | 0.05 | 96 | 1013.4 |
| 20260509132614 | 11 | 163 | 3.2 | 3.2 | 0.00 | 0.05 | 0.05 | 96 | 1013.5 |
| 20260509132113 | 11 | 123 | 3.2 | 3.2 | 0.05 | 0.05 | 0.05 | 97 | 1013.4 |
| 20260509131608 | 11 | 121 | 3.2 | 3.2 | 0.05 | 0.05 | 0.05 | 97 | 1013.4 |
| 20260509131105 | 11 | 60 | 1.6 | 3.2 | 0.00 | 0.05 | 0.05 | 97 | 1013.5 |
| 20260509130601 | 11 | 117 | 3.2 | 4.8 | 0.05 | 0.05 | 0.05 | 97 | 1013.7 |
| 20260509130058 | 11 | 99 | 1.6 | 3.2 | 0.05 | 0.05 | 0.05 | 97 | 1013.4 |
| 20260509125554 | 11 | 122 | 0.0 | 3.2 | 0.00 | 0.05 | 0.05 | 97 | 1013.6 |
| 20260509125051 | 10 | 61 | 0.0 | 3.2 | 0.00 | 0.05 | 0.05 | 97 | 1013.6 |
| 20260509124547 | 10 | 105 | 0.0 | 3.2 | 0.00 | 0.05 | 0.05 | 97 | 1013.8 |
| 20260509124045 | 10 | 182 | 1.6 | 3.2 | 0.00 | 0.05 | 0.05 | 97 | 1013.8 |
| 20260509123543 | 10 | 143 | 0.0 | 3.2 | 0.00 | 0.05 | 0.05 | 97 | 1013.7 |
| 20260509123039 | 10 | 123 | 0.0 | 3.2 | 0.00 | 0.05 | 0.05 | 97 | 1013.6 |
| 20260509122535 | 10 | 130 | 0.0 | 0.0 | 0.05 | 0.05 | 0.05 | 97 | 1013.5 |
| 20260509122032 | 10 | 98 | 0.0 | 0.0 | 0.05 | 0.05 | 0.05 | 97 | 1013.6 |
| 20260509121529 | 10 | 124 | 0.0 | 1.6 | 0.00 | 0.03 | 0.03 | 98 | 1013.4 |
| 20260509121026 | 10 | 130 | 3.2 | 3.2 | 0.00 | 0.03 | 0.03 | 98 | 1013.7 |
| 20260509120525 | 10 | 96 | 1.6 | 3.2 | 0.05 | 0.03 | 0.03 | 98 | 1013.6 |
| 20260509120023 | 10 | 80 | 3.2 | 4.8 | 0.05 | 0.03 | 0.03 | 98 | 1013.4 |
| 20260509115519 | 10 | 100 | 1.6 | 3.2 | 0.00 | 0.03 | 0.03 | 98 | 1013.6 |
| 20260509115017 | 10 | 342 | 0.0 | 3.2 | 0.00 | 0.03 | 0.03 | 99 | 1013.6 |
| 20260509114515 | 10 | 163 | 0.0 | 3.2 | 0.00 | 0.03 | 0.03 | 99 | 1013.4 |
| 20260509114014 | 10 | 57 | 0.0 | 3.2 | 0.00 | 0.03 | 0.03 | 99 | 1013.3 |
| 20260509113512 | 10 | 105 | 3.2 | 3.2 | 0.00 | 0.03 | 0.03 | 99 | 1013.2 |
| 20260509113009 | 10 | 56 | 1.6 | 3.2 | 0.00 | 0.03 | 0.03 | 99 | 1013.5 |
| 20260509112505 | 10 | 96 | 3.2 | 3.2 | 0.00 | 0.03 | 0.03 | 99 | 1013.3 |
| 20260509112002 | 10 | 48 | 3.2 | 4.8 | 0.00 | 0.03 | 0.03 | 99 | 1013.4 |
| 20260509111459 | 10 | 69 | 0.0 | 3.2 | 0.00 | 0.03 | 0.03 | 99 | 1013.4 |
| 20260509110956 | 10 | 47 | 1.6 | 3.2 | 0.00 | 0.03 | 0.03 | 99 | 1013.5 |
| 20260509110452 | 10 | 111 | 0.0 | 1.6 | 0.00 | 0.03 | 0.03 | 99 | 1013.6 |
| 20260509105950 | 10 | 117 | 0.0 | 0.0 | 0.00 | 0.03 | 0.03 | 99 | 1013.4 |
| 20260509105449 | 10 | 68 | 3.2 | 6.4 | 0.00 | 0.03 | 0.03 | 99 | 1013.2 |
| 20260509104945 | 10 | 43 | 3.2 | 6.4 | 0.05 | 0.03 | 0.03 | 99 | 1013.2 |
| 20260509104442 | 10 | 14 | 4.8 | 6.4 | 0.05 | 0.03 | 0.03 | 99 | 1013.2 |
| 20260509103939 | 10 | 14 | 0.0 | 8.0 | 0.00 | 0.00 | 0.00 | 99 | 1013.2 |
| 20260509103437 | 10 | 19 | 6.4 | 6.4 | 0.00 | 0.00 | 0.00 | 99 | 1013.4 |
| 20260509102935 | 9 | 126 | 3.2 | 9.7 | 0.00 | 0.00 | 0.00 | 99 | 1013.0 |
| 20260509102432 | 10 | 41 | 1.6 | 8.0 | 0.00 | 0.00 | 0.00 | 99 | 1013.5 |
| 20260509101928 | 9 | 79 | 4.8 | 8.0 | 0.00 | 0.00 | 0.00 | 99 | 1013.1 |
| 20260509101425 | 9 | 281 | 1.6 | 3.2 | 0.00 | 0.00 | 0.00 | 99 | 1013.3 |
| 20260509100922 | 9 | 119 | 3.2 | 4.8 | 0.00 | 0.00 | 0.00 | 99 | 1013.4 |
| 20260509100419 | 9 | 86 | 1.6 | 1.6 | 0.00 | 0.00 | 0.00 | 99 | 1013.3 |
| 20260509095916 | 10 | 103 | 3.2 | 4.8 | 0.00 | 0.00 | 0.00 | 99 | 1013.3 |
| 20260509095413 | 10 | 48 | 3.2 | 3.2 | 0.00 | 0.00 | 0.00 | 99 | 1013.4 |
| 20260509094910 | 10 | 35 | 0.0 | 3.2 | 0.00 | 0.00 | 0.00 | 99 | 1013.4 |
| 20260509094406 | 10 | 114 | 3.2 | 4.8 | 0.00 | 0.00 | 0.00 | 99 | 1013.3 |
| 20260509093905 | 10 | 103 | 0.0 | 3.2 | 0.00 | 0.00 | 0.00 | 99 | 1013.4 |
| 20260509093401 | 10 | 64 | 6.4 | 6.4 | 0.00 | 0.00 | 0.00 | 99 | 1013.3 |
| 20260509092900 | 10 | 79 | 6.4 | 6.4 | 0.00 | 0.00 | 0.00 | 99 | 1013.5 |
| 20260509092357 | 10 | 33 | 6.4 | 6.4 | 0.00 | 0.00 | 0.00 | 99 | 1013.4 |
| 20260509091855 | 10 | 81 | 4.8 | 6.4 | 0.00 | 0.00 | 0.00 | 99 | 1013.6 |
| 20260509091352 | 10 | 11 | 3.2 | 6.4 | 0.00 | 0.00 | 0.00 | 99 | 1013.7 |
| 20260509090849 | 10 | 75 | 3.2 | 4.8 | 0.00 | 0.00 | 0.00 | 99 | 1013.8 |
| 20260509090346 | 10 | 10 | 3.2 | 4.8 | 0.00 | 0.00 | 0.00 | 99 | 1013.6 |
| 20260509085844 | 10 | 15 | 3.2 | 3.2 | 0.00 | 0.00 | 0.00 | 99 | 1013.6 |
| 20260509085341 | 10 | 4 | 1.6 | 3.2 | 0.00 | 0.00 | 0.00 | 99 | 1013.6 |
| 20260509084837 | 10 | 355 | 1.6 | 3.2 | 0.00 | 0.00 | 0.00 | 99 | 1013.6 |
| 20260509084334 | 10 | 2 | 1.6 | 3.2 | 0.00 | 0.00 | 0.00 | 99 | 1013.5 |
| 20260509083832 | 10 | 36 | 1.6 | 3.2 | 0.00 | 0.00 | 0.00 | 99 | 1013.4 |
| 20260509083328 | 10 | 48 | 3.2 | 4.8 | 0.00 | 0.00 | 0.00 | 99 | 1013.5 |
| 20260509082825 | 10 | 53 | 3.2 | 4.8 | 0.00 | 0.00 | 0.00 | 99 | 1013.4 |
| 20260509082322 | 10 | 101 | 3.2 | 4.8 | 0.00 | 0.00 | 0.00 | 99 | 1013.2 |
| 20260509081819 | 10 | 99 | 1.6 | 3.2 | 0.00 | 0.00 | 0.00 | 99 | 1013.6 |
| 20260509081316 | 10 | 73 | 3.2 | 4.8 | 0.00 | 0.00 | 0.00 | 99 | 1013.5 |
| 20260509080814 | 10 | 103 | 3.2 | 4.8 | 0.00 | 0.00 | 0.00 | 99 | 1013.4 |
| 20260509080312 | 10 | 106 | 4.8 | 6.4 | 0.00 | 0.00 | 0.00 | 99 | 1013.5 |
| 20260509075810 | 10 | 103 | 3.2 | 4.8 | 0.00 | 0.00 | 0.00 | 99 | 1013.5 |
| 20260509075307 | 10 | 107 | 3.2 | 3.2 | 0.00 | 0.00 | 0.00 | 99 | 1013.5 |
| 20260509074804 | 10 | 70 | 0.0 | 4.8 | 0.00 | 0.00 | 0.00 | 99 | 1013.8 |
| 20260509074301 | 10 | 96 | 3.2 | 4.8 | 0.00 | 0.00 | 0.00 | 99 | 1013.7 |
| 20260509073757 | 10 | 109 | 4.8 | 4.8 | 0.00 | 0.00 | 0.00 | 99 | 1013.7 |
| 20260509073254 | 10 | 99 | 4.8 | 4.8 | 0.00 | 0.00 | 0.00 | 99 | 1013.7 |
| 20260509072750 | 10 | 79 | 6.4 | 6.4 | 0.00 | 0.00 | 0.00 | 99 | 1013.9 |
| 20260509072247 | 10 | 71 | 3.2 | 4.8 | 0.00 | 0.00 | 0.00 | 99 | 1014.0 |
| 20260509071744 | 10 | 105 | 1.6 | 3.2 | 0.00 | 0.00 | 0.00 | 99 | 1014.0 |
| 20260509071241 | 10 | 58 | 1.6 | 3.2 | 0.00 | 0.00 | 0.00 | 99 | 1014.0 |
| 20260509070738 | 10 | 36 | 3.2 | 3.2 | 0.00 | 0.00 | 0.00 | 99 | 1014.2 |
| 20260509070234 | 10 | 81 | 3.2 | 3.2 | 0.00 | 0.00 | 0.00 | 99 | 1014.0 |
| 20260509065731 | 10 | 61 | 3.2 | 4.8 | 0.00 | 0.00 | 0.00 | 99 | 1013.9 |
| 20260509065227 | 10 | 72 | 1.6 | 3.2 | 0.05 | 0.00 | 0.00 | 99 | 1014.2 |
| 20260509064724 | 10 | 328 | 0.0 | 1.6 | 0.05 | 0.00 | 0.00 | 99 | 1014.3 |
| 20260509064221 | 10 | 49 | 0.0 | 3.2 | 0.00 | 0.00 | 0.00 | 99 | 1013.9 |
| 20260509063719 | 10 | 60 | 0.0 | 3.2 | 0.00 | 0.00 | 0.00 | 99 | 1014.0 |
| 20260509063215 | 10 | 106 | 3.2 | 4.8 | 0.00 | 0.00 | 0.00 | 99 | 1014.0 |
| 20260509062712 | 10 | 74 | 0.0 | 1.6 | 0.00 | 0.00 | 0.00 | 99 | 1014.3 |
| 20260509062209 | 10 | 85 | 1.6 | 3.2 | 0.00 | 0.00 | 0.00 | 98 | 1014.4 |
| 20260509061706 | 10 | 32 | 1.6 | 3.2 | 0.00 | 0.00 | 0.00 | 98 | 1014.6 |
| 20260509061204 | 10 | 105 | 3.2 | 3.2 | 0.00 | 0.00 | 0.00 | 98 | 1014.6 |
| 20260509060701 | 10 | 87 | 0.0 | 1.6 | 0.00 | 0.00 | 0.00 | 98 | 1014.6 |
| 20260509060157 | 10 | 74 | 0.0 | 1.6 | 0.00 | 0.00 | 0.00 | 98 | 1014.4 |
| 20260509055652 | 10 | 7 | 3.2 | 3.2 | 0.00 | 0.00 | 0.00 | 97 | 1014.6 |
| 20260509055149 | 10 | 85 | 0.0 | 1.6 | 0.00 | 0.00 | 0.00 | 97 | 1014.6 |
| 20260509054645 | 10 | 98 | 3.2 | 3.2 | 0.00 | 0.00 | 0.00 | 97 | 1014.7 |
| 20260509054143 | 10 | 80 | 3.2 | 3.2 | 0.00 | 0.00 | 0.00 | 96 | 1014.8 |
| 20260509053641 | 10 | 100 | 1.6 | 3.2 | 0.00 | 0.00 | 0.00 | 96 | 1014.8 |
| 20260509053138 | 10 | 59 | 0.0 | 1.6 | 0.00 | 0.00 | 0.00 | 96 | 1014.9 |
| 20260509052636 | 10 | 111 | 3.2 | 3.2 | 0.00 | 0.00 | 0.00 | 96 | 1014.9 |
| 20260509052133 | 10 | 119 | 0.0 | 3.2 | 0.00 | 0.00 | 0.00 | 95 | 1015.0 |
| 20260509051631 | 10 | 69 | 1.6 | 3.2 | 0.00 | 0.00 | 0.00 | 95 | 1014.9 |
| 20260509051128 | 10 | 102 | 3.2 | 3.2 | 0.00 | 0.00 | 0.00 | 95 | 1015.0 |
| 20260509050625 | 10 | 74 | 1.6 | 4.8 | 0.00 | 0.00 | 0.00 | 94 | 1015.1 |
| 20260509050121 | 10 | 115 | 3.2 | 3.2 | 0.00 | 0.00 | 0.00 | 94 | 1015.1 |
| 20260509045619 | 10 | 95 | 1.6 | 3.2 | 0.00 | 0.00 | 0.00 | 95 | 1014.9 |
| 20260509045116 | 10 | 26 | 1.6 | 1.6 | 0.00 | 0.00 | 0.00 | 94 | 1014.9 |
| 20260509044613 | 10 | 161 | 3.2 | 4.8 | 0.00 | 0.00 | 0.00 | 95 | 1015.0 |
| 20260509044110 | 10 | 161 | 3.2 | 3.2 | 0.00 | 0.00 | 0.00 | 96 | 1015.1 |
| 20260509043607 | 10 | 159 | 1.6 | 3.2 | 0.00 | 0.00 | 0.00 | 96 | 1015.1 |
| 20260509043102 | 10 | 177 | 1.6 | 3.2 | 0.00 | 0.00 | 0.00 | 97 | 1014.9 |
| 20260509042559 | 10 | 160 | 1.6 | 3.2 | 0.00 | 0.00 | 0.00 | 97 | 1014.6 |
| 20260509042055 | 10 | 124 | 0.0 | 1.6 | 0.00 | 0.00 | 0.00 | 96 | 1014.3 |
| 20260509041552 | 10 | 114 | 1.6 | 3.2 | 0.00 | 0.00 | 0.00 | 95 | 1014.3 |
| 20260509041049 | 10 | 87 | 1.6 | 1.6 | 0.00 | 0.00 | 0.00 | 95 | 1014.3 |
| 20260509040547 | 10 | 64 | 0.0 | 4.8 | 0.00 | 0.00 | 0.00 | 95 | 1014.5 |
| 20260509040044 | 10 | 86 | 3.2 | 4.8 | 0.00 | 0.18 | 0.18 | 95 | 1014.6 |
| 20260509035541 | 10 | 105 | 1.6 | 3.2 | 0.00 | 0.18 | 0.18 | 96 | 1014.6 |
| 20260509035037 | 10 | 32 | 0.0 | 3.2 | 0.00 | 0.18 | 0.18 | 96 | 1014.5 |
| 20260509034536 | 10 | 63 | 0.0 | 3.2 | 0.00 | 0.18 | 0.18 | 95 | 1014.5 |
| 20260509034032 | 10 | 108 | 1.6 | 3.2 | 0.00 | 0.18 | 0.18 | 95 | 1014.5 |
| 20260509033530 | 10 | 102 | 0.0 | 3.2 | 0.00 | 0.18 | 0.18 | 95 | 1014.5 |
| 20260509033026 | 10 | 109 | 3.2 | 4.8 | 0.00 | 0.18 | 0.18 | 95 | 1014.7 |
| 20260509032524 | 10 | 110 | 3.2 | 4.8 | 0.00 | 0.18 | 0.18 | 95 | 1014.8 |
| 20260509032021 | 10 | 71 | 3.2 | 3.2 | 0.00 | 0.18 | 0.18 | 95 | 1014.7 |
| 20260509031518 | 10 | 70 | 3.2 | 4.8 | 0.00 | 0.18 | 0.18 | 95 | 1014.7 |
| 20260509031015 | 10 | 22 | 0.0 | 1.6 | 0.00 | 0.18 | 0.18 | 95 | 1014.9 |
| 20260509030513 | 10 | 89 | 1.6 | 3.2 | 0.00 | 0.18 | 0.18 | 95 | 1014.9 |
| 20260509030010 | 10 | 71 | 1.6 | 3.2 | 0.00 | 0.18 | 0.18 | 95 | 1015.0 |
| 20260509025506 | 10 | 49 | 3.2 | 3.2 | 0.00 | 0.18 | 0.18 | 94 | 1014.7 |
| 20260509025001 | 11 | 83 | 3.2 | 4.8 | 0.00 | 0.18 | 0.18 | 93 | 1014.7 |
| 20260509024457 | 11 | 124 | 0.0 | 0.0 | 0.00 | 0.18 | 0.18 | 92 | 1014.8 |
| 20260509023954 | 11 | 102 | 3.2 | 3.2 | 0.00 | 0.18 | 0.18 | 92 | 1014.8 |
| 20260509023452 | 11 | 124 | 0.0 | 3.2 | 0.00 | 0.18 | 0.18 | 93 | 1014.8 |
| 20260509022949 | 11 | 329 | 0.0 | 3.2 | 0.00 | 0.18 | 0.18 | 91 | 1015.0 |
| 20260509022445 | 11 | 110 | 3.2 | 4.8 | 0.00 | 0.18 | 0.18 | 90 | 1015.1 |
| 20260509021943 | 11 | 125 | 4.8 | 4.8 | 0.00 | 0.18 | 0.18 | 89 | 1015.1 |
| 20260509021439 | 11 | 92 | 1.6 | 3.2 | 0.13 | 0.18 | 0.18 | 90 | 1015.1 |
| 20260509020937 | 11 | 80 | 1.6 | 3.2 | 0.18 | 0.18 | 0.18 | 90 | 1015.2 |
| 20260509020435 | 11 | 57 | 3.2 | 3.2 | 0.00 | 0.15 | 0.15 | 90 | 1014.8 |
| 20260509015932 | 11 | 83 | 0.0 | 0.0 | 0.00 | 0.15 | 0.15 | 86 | 1014.9 |
| 20260509015431 | 11 | 106 | 0.0 | 3.2 | 0.00 | 0.15 | 0.15 | 83 | 1014.7 |
| 20260509014927 | 11 | 39 | 0.0 | 0.0 | 0.00 | 0.15 | 0.15 | 83 | 1014.9 |
| 20260509014424 | 11 | 103 | 3.2 | 3.2 | 0.00 | 0.15 | 0.15 | 80 | 1014.6 |
| 20260509013920 | 11 | 95 | 0.0 | 1.6 | 0.00 | 0.15 | 0.15 | 81 | 1014.4 |
| 20260509013417 | 12 | 92 | 3.2 | 3.2 | 0.00 | 0.15 | 0.15 | 80 | 1014.5 |
| 20260509012913 | 12 | 111 | 0.0 | 3.2 | 0.00 | 0.15 | 0.15 | 76 | 1014.4 |
| 20260509012410 | 12 | 118 | 3.2 | 3.2 | 0.00 | 0.15 | 0.15 | 76 | 1014.5 |
| 20260509011907 | 12 | 120 | 3.2 | 3.2 | 0.00 | 0.15 | 0.15 | 77 | 1014.4 |
| 20260509011404 | 12 | 103 | 3.2 | 3.2 | 0.00 | 0.15 | 0.15 | 77 | 1014.4 |
| 20260509010902 | 12 | 102 | 3.2 | 3.2 | 0.00 | 0.15 | 0.15 | 78 | 1014.4 |
| 20260509010359 | 12 | 108 | 3.2 | 3.2 | 0.00 | 0.15 | 0.15 | 79 | 1014.3 |
| 20260509005856 | 12 | 134 | 3.2 | 3.2 | 0.00 | 0.15 | 0.15 | 78 | 1014.3 |
| 20260509005354 | 12 | 107 | 0.0 | 1.6 | 0.00 | 0.15 | 0.15 | 78 | 1014.3 |
| 20260509004849 | 12 | 66 | 0.0 | 1.6 | 0.00 | 0.15 | 0.15 | 77 | 1014.3 |
| 20260509004345 | 12 | 133 | 1.6 | 3.2 | 0.00 | 0.15 | 0.15 | 75 | 1014.1 |
| 20260509003843 | 12 | 135 | 0.0 | 3.2 | 0.00 | 0.15 | 0.15 | 76 | 1014.2 |
| 20260509003341 | 12 | 120 | 3.2 | 3.2 | 0.00 | 0.15 | 0.15 | 75 | 1014.1 |
| 20260509002838 | 12 | 123 | 3.2 | 3.2 | 0.00 | 0.15 | 0.15 | 75 | 1014.2 |
| 20260509002335 | 12 | 97 | 1.6 | 3.2 | 0.00 | 0.15 | 0.15 | 74 | 1014.1 |
| 20260509001833 | 13 | 125 | 3.2 | 3.2 | 0.00 | 0.15 | 0.15 | 75 | 1014.0 |
| 20260509001328 | 13 | 111 | 1.6 | 3.2 | 0.00 | 0.15 | 0.15 | 77 | 1013.9 |
| 20260509000826 | 13 | 117 | 1.6 | 3.2 | 0.00 | 0.15 | 0.15 | 75 | 1013.9 |
| 20260509000325 | 13 | 121 | 3.2 | 3.2 | 0.00 | 0.15 | 0.15 | 74 | 1014.1 |
| 20260508235820 | 12 | 116 | 1.6 | 3.2 | 0.00 | 0.15 | 0.15 | 76 | 1014.1 |
| 20260508235317 | 13 | 112 | 1.6 | 1.6 | 0.00 | 0.15 | 0.15 | 78 | 1014.0 |